Latest Weather Observations for Pallamana

IDS60801

Issued at 9:01 pm CST Sunday 1 May 2016 (issued every 30 minutes, with the page automatically refreshed every 10 minutes)

About weather observations | Map of weather stations | Latest weather observations for SA | Other Formats
Station Details ID: 024584 Name: PALLAMANA AERODROME Lat: -35.06 Lon: 139.23 Height: 45.0 m
Data from the previous 72 hours. | See also: Recent months at Pallamana
Date/Time
CST
Temp
°C
App
Temp
°C
Dew
Point
Rel
Hum
%
Delta-T
°C
Wind Press
QNH
hPa
Press
MSL
hPa
Rain
since 9 am
mm
Dir
 
Spd
km/h
Gust
km/h
Spd
kts
Gust
kts
01/09:00pm 10.5 7.9 6.2 75 2.0 WNW 9 11 5 6 1018.3 1018.3 0.0
01/08:30pm 11.0 8.8 6.3 73 2.2 WNW 7 7 4 4 1018.2 1018.2 0.0
01/08:00pm 11.9 9.3 6.2 68 2.7 NW 9 11 5 6 1018.2 1018.2 0.0
01/07:30pm 11.2 7.8 5.8 69 2.5 NW 13 15 7 8 1018.2 1018.2 0.0
01/07:00pm 10.9 9.9 5.7 70 2.4 CALM 0 6 0 3 1018.1 1018.1 0.0
01/06:30pm 11.0 9.9 5.3 68 2.6 CALM 0 0 0 0 1017.9 1017.9 0.0
01/06:00pm 12.0 9.3 5.8 66 2.9 SW 9 11 5 6 1017.8 1017.8 0.0
01/05:30pm 13.5 10.0 5.6 59 3.7 SSW 13 15 7 8 1017.4 1017.4 0.0
01/05:00pm 15.7 11.8 5.4 50 4.9 SSW 15 19 8 10 1017.3 1017.3 0.0
01/04:30pm 16.5 12.2 5.2 47 5.4 SW 17 20 9 11 1017.0 1017.0 0.0
01/04:00pm 16.7 12.3 4.9 45 5.6 SSW 17 22 9 12 1016.8 1016.8 0.0
01/03:30pm 17.4 12.6 4.8 43 6.0 SW 19 26 10 14 1016.7 1016.7 0.0
01/03:00pm 17.8 12.9 4.9 42 6.2 SSW 20 30 11 16 1016.5 1016.5 0.0
01/02:30pm 17.8 13.2 5.4 44 6.0 SSW 19 32 10 17 1016.4 1016.4 0.0
01/02:00pm 19.1 13.7 2.4 33 7.7 SW 20 33 11 18 1016.0 1016.0 0.0
01/01:30pm 18.4 13.0 2.5 34 7.3 WSW 20 33 11 18 1016.2 1016.2 0.0
01/01:00pm 19.2 13.6 3.2 34 7.5 WSW 22 32 12 17 1016.2 1016.2 0.0
01/12:30pm 17.9 12.4 4.1 40 6.5 SW 22 32 12 17 1016.5 1016.5 0.0
01/12:00pm 17.6 11.2 3.4 38 6.6 SW 26 41 14 22 1016.6 1016.6 0.0
01/11:30am 17.9 10.8 3.5 38 6.7 SW 30 39 16 21 1016.6 1016.6 0.0
01/11:00am 17.5 9.6 4.1 41 6.3 SW 35 44 19 24 1016.9 1016.9 0.0
01/10:30am 16.8 9.5 4.5 44 5.8 WSW 32 43 17 23 1016.8 1016.8 0.0
01/10:00am 16.5 8.3 4.6 45 5.6 WSW 37 48 20 26 1016.7 1016.7 0.0
01/09:30am 16.1 9.7 7.0 54 4.5 WSW 30 41 16 22 1016.8 1016.8 0.0
01/09:00am 15.0 9.7 6.6 57 4.1 SW 24 39 13 21 1016.5 1016.4 1.4
01/08:30am 14.0 9.3 7.7 66 3.1 WSW 22 30 12 16 1015.8 1015.7 1.4
01/08:00am 13.0 8.5 7.0 67 2.9 W 20 28 11 15 1015.1 1015.0 1.4
01/07:30am 12.6 6.7 7.5 71 2.5 W 28 41 15 22 1014.6 1014.5 1.4
01/07:00am 11.9 6.9 8.2 78 1.8 W 24 30 13 16 1013.9 1013.8 1.2
01/06:33am 12.1 5.8 8.9 81 1.6 W 32 44 17 24 1013.5 1013.4 1.2
01/06:30am 12.1 5.8 9.1 82 1.5 W 32 44 17 24 1013.5 1013.4 1.2
01/06:16am 11.9 5.2 9.5 85 1.2 WSW 35 50 19 27 1013.3 1013.2 1.0
01/06:00am 12.1 6.8 8.3 77 1.9 W 26 35 14 19 1012.9 1012.8 0.6
01/05:30am 12.8 6.8 8.6 75 2.1 WSW 30 41 16 22 1012.3 1012.2 0.4
01/05:00am 13.0 7.1 7.7 70 2.6 W 28 39 15 21 1011.6 1011.5 0.4
01/04:30am 12.7 5.9 7.1 69 2.7 WSW 32 46 17 25 1011.5 1011.4 0.4
01/04:28am 12.8 6.8 7.2 69 2.7 WSW 28 46 15 25 1011.4 1011.3 0.4
01/04:00am 13.1 7.7 7.8 70 2.6 WSW 26 35 14 19 1010.7 1010.7 0.4
01/03:30am 12.5 8.4 8.5 76 2.0 W 20 32 11 17 1010.6 1010.6 0.2
01/03:00am 14.1 10.4 7.9 66 3.1 WSW 17 44 9 24 1010.5 1010.5 0.2
01/02:30am 14.3 10.5 7.4 63 3.4 W 17 26 9 14 1009.8 1009.8 0.2
01/02:00am 14.9 8.8 6.7 58 4.0 WNW 28 43 15 23 1009.6 1009.6 0.2
01/01:30am 15.2 8.6 7.6 60 3.8 WNW 32 46 17 25 1009.3 1009.3 0.2
01/01:00am 15.2 7.4 8.3 63 3.5 WNW 39 59 21 32 1008.5 1008.5 0.2
01/12:30am 15.4 9.1 9.0 65 3.3 WNW 32 54 17 29 1008.2 1008.2 0.2
01/12:01am 15.3 10.3 10.8 74 2.4 WNW 28 46 15 25 1008.4 1008.4 0.2
01/12:00am 15.4 10.8 10.9 74 2.4 WNW 26 46 14 25 1008.4 1008.4 0.2
 
Date/Time
CST
Temp
°C
App
Temp
°C
Dew
Point
Rel
Hum
%
Delta-T
°C
Wind Press
QNH
hPa
Press
MSL
hPa
Rain
since 9 am
mm
Dir
 
Spd
km/h
Gust
km/h
Spd
kts
Gust
kts
30/11:30pm 15.5 10.3 10.4 71 2.7 WNW 28 41 15 22 1008.2 1008.2 0.2
30/11:00pm 15.6 9.5 9.9 69 3.0 W 32 52 17 28 1008.0 1008.0 0.0
30/10:30pm 18.0 11.2 6.8 48 5.6 WNW 32 54 17 29 1007.6 1007.6 0.0
30/10:00pm 18.8 11.2 7.4 47 5.8 WNW 37 57 20 31 1007.9 1007.9 0.0
30/09:30pm 19.5 12.3 7.6 46 6.1 WNW 35 54 19 29 1008.3 1008.3 0.0
30/09:23pm 19.7 13.2 8.9 49 5.7 WNW 33 54 18 29 1008.3 1008.3 0.0
30/09:00pm 19.8 13.5 8.8 49 5.8 WNW 32 46 17 25 1008.0 1008.0 0.0
30/08:30pm 21.8 14.3 8.1 41 7.2 WNW 37 63 20 34 1007.5 1007.5 0.0
30/08:09pm 23.1 16.9 6.1 33 8.7 W 28 46 15 25 1006.7 1006.7 0.0
30/08:00pm 23.2 18.7 8.4 38 7.9 WNW 22 35 12 19 1005.5 1005.5 0.0
30/07:41pm 23.4 16.7 9.7 41 7.5 NNW 35 63 19 34 1006.0 1006.0 0.0
30/07:30pm 23.5 17.7 9.6 41 7.6 NW 30 43 16 23 1005.7 1005.7 0.0
30/07:00pm 21.0 16.4 9.7 48 6.1 N 24 35 13 19 1005.8 1005.8 0.0
30/06:30pm 21.5 17.5 4.9 33 8.2 N 15 17 8 9 1005.7 1005.7 0.0
30/06:00pm 22.8 17.8 4.7 30 9.0 N 20 24 11 13 1006.0 1006.0 0.0
30/05:30pm 24.5 18.2 3.6 25 10.3 NNW 26 35 14 19 1006.1 1006.1 0.0
30/05:00pm 25.5 17.8 2.4 22 11.2 NNW 32 44 17 24 1006.2 1006.2 0.0
30/04:30pm 26.4 18.4 0.6 18 12.2 NNW 32 44 17 24 1006.4 1006.4 0.0
30/04:00pm 26.8 18.0 1.1 19 12.2 NW 37 50 20 27 1006.6 1006.6 0.0
30/03:30pm 27.2 18.0 1.2 18 12.5 NNW 39 56 21 30 1006.9 1006.9 0.0
30/03:16pm 27.5 18.3 1.4 18 12.6 NNW 39 61 21 33 1006.9 1006.9 0.0
30/03:00pm 27.4 17.8 1.2 18 12.6 NNW 41 54 22 29 1007.1 1007.1 0.0
30/02:45pm 27.5 19.0 1.0 18 12.7 NNW 35 54 19 29 1007.2 1007.2 0.0
30/02:30pm 27.3 18.2 2.1 19 12.3 NNW 39 54 21 29 1007.4 1007.4 0.0
30/02:00pm 27.4 18.4 0.4 17 12.8 NNW 37 50 20 27 1007.8 1007.8 0.0
30/01:35pm 26.7 18.7 0.4 18 12.4 NNW 32 50 17 27 1008.4 1008.4 0.0
30/01:30pm 27.1 18.9 0.5 17 12.6 NNW 33 44 18 24 1008.5 1008.5 0.0
30/01:02pm 27.5 19.3 0.6 17 12.8 NNW 33 52 18 28 1009.0 1009.0 0.0
30/01:00pm 27.1 18.5 0.5 17 12.6 NNW 35 52 19 28 1009.1 1009.1 0.0
30/12:43pm 26.2 18.4 2.0 20 11.7 NNW 32 50 17 27 1009.4 1009.4 0.0
30/12:30pm 26.5 18.5 1.5 19 12.0 NNW 33 44 18 24 1009.7 1009.7 0.0
30/12:05pm 26.3 19.3 5.8 27 10.6 NNW 32 57 17 31 1010.3 1010.3 0.0
30/12:00pm 26.6 19.3 4.5 24 11.2 N 32 43 17 23 1010.6 1010.6 0.0
30/11:32am 25.8 19.7 6.7 29 10.0 NNE 28 46 15 25 1011.3 1011.2 0.0
30/11:30am 25.2 20.0 8.8 35 8.9 NNE 26 33 14 18 1011.4 1011.3 0.0
30/11:00am 25.4 18.4 3.9 25 10.7 NNW 30 39 16 21 1012.1 1012.0 0.0
30/10:30am 24.9 18.6 5.5 28 9.9 N 28 39 15 21 1012.5 1012.4 0.0
30/10:00am 23.9 16.8 5.6 30 9.3 N 32 41 17 22 1012.7 1012.6 0.0
30/09:30am 22.5 17.0 5.9 34 8.4 N 24 32 13 17 1013.1 1013.0 0.0
30/09:00am 21.5 16.6 6.8 38 7.5 N 22 30 12 16 1013.3 1013.2 0.2
30/08:30am 19.3 16.1 10.0 55 5.0 NNW 17 20 9 11 1013.5 1013.4 0.2
30/08:00am 14.4 12.5 10.6 78 2.0 NNW 11 15 6 8 1013.7 1013.6 0.2
30/07:30am 11.4 9.5 9.0 85 1.2 NNW 9 11 5 6 1013.8 1013.7 0.2
30/07:00am 10.7 8.3 8.7 87 1.0 NNW 11 15 6 8 1013.5 1013.4 0.2
30/06:30am 10.1 7.3 8.5 90 0.8 NNW 13 17 7 9 1013.4 1013.3 0.2
30/06:00am 9.9 7.1 8.5 91 0.7 NNW 13 17 7 9 1013.3 1013.2 0.2
30/05:30am 11.1 8.5 9.3 89 0.9 NNW 13 13 7 7 1013.1 1013.0 0.2
30/05:00am 11.9 10.6 9.9 87 1.0 NNW 7 9 4 5 1012.9 1012.8 0.2
30/04:30am 12.1 10.1 10.2 88 1.0 NNW 11 13 6 7 1012.8 1012.7 0.2
30/04:00am 12.6 10.4 10.7 88 1.0 NNW 13 15 7 8 1012.6 1012.5 0.2
30/03:30am 12.5 11.0 10.4 87 1.1 NW 9 13 5 7 1012.4 1012.3 0.2
30/03:00am 12.3 10.4 10.6 89 0.9 NNW 11 13 6 7 1012.4 1012.3 0.2
30/02:30am 12.8 11.4 10.9 88 1.0 NW 9 11 5 6 1012.7 1012.6 0.2
30/02:00am 14.3 12.9 10.9 80 1.8 NW 9 13 5 7 1012.8 1012.7 0.2
30/01:30am 16.5 14.6 11.7 73 2.6 WNW 13 17 7 9 1012.8 1012.7 0.2
30/01:00am 17.2 15.3 11.9 71 2.9 W 13 15 7 8 1012.8 1012.7 0.2
30/12:30am 14.1 14.8 12.1 88 1.1 CALM 0 0 0 0 1012.7 1012.6 0.2
30/12:00am 14.4 13.9 12.2 87 1.2 N 6 7 3 4 1012.5 1012.4 0.2
 
Date/Time
CST
Temp
°C
App
Temp
°C
Dew
Point
Rel
Hum
%
Delta-T
°C
Wind Press
QNH
hPa
Press
MSL
hPa
Rain
since 9 am
mm
Dir
 
Spd
km/h
Gust
km/h
Spd
kts
Gust
kts
29/11:30pm 13.9 12.7 11.7 86 1.2 N 9 13 5 7 1012.7 1012.6 0.2
29/11:00pm 14.3 13.9 12.3 88 1.1 WNW 6 9 3 5 1013.0 1012.9 0.2
29/10:30pm 13.6 12.9 11.5 87 1.1 NW 6 7 3 4 1013.0 1012.9 0.2
29/10:00pm 12.6 11.9 10.1 85 1.3 N 4 9 2 5 1013.2 1013.1 0.2
29/09:30pm 14.2 14.2 11.2 82 1.6 NE 2 6 1 3 1013.2 1013.1 0.2
29/09:00pm 14.7 13.5 11.5 81 1.7 ENE 9 11 5 6 1013.1 1013.0 0.2
29/08:30pm 17.5 15.4 12.3 71 2.9 WNW 15 17 8 9 1012.8 1012.7 0.2
29/08:00pm 16.4 15.2 11.6 73 2.6 WNW 9 13 5 7 1012.6 1012.5 0.2
29/07:30pm 18.2 16.8 12.1 67 3.4 WNW 11 13 6 7 1012.6 1012.5 0.2
29/07:00pm 16.9 15.3 11.6 71 2.9 W 11 11 6 6 1012.4 1012.3 0.2
29/06:30pm 19.1 17.7 12.1 64 3.9 W 11 13 6 7 1012.2 1012.1 0.2
29/06:00pm 20.1 19.2 12.5 61 4.3 WNW 9 11 5 6 1011.9 1011.8 0.2
29/05:30pm 21.3 19.9 12.1 55 5.2 W 11 13 6 7 1011.8 1011.7 0.2
29/05:00pm 22.8 20.5 11.8 50 6.2 WNW 15 20 8 11 1011.7 1011.6 0.2
29/04:30pm 23.6 20.8 11.5 46 6.8 NW 17 24 9 13 1011.5 1011.4 0.2
29/04:00pm 23.9 20.7 11.3 45 7.1 WNW 19 24 10 13 1011.3 1011.2 0.2
29/03:30pm 23.7 21.4 11.9 47 6.7 NW 15 20 8 11 1011.1 1011.1 0.2
29/03:00pm 23.5 21.5 11.6 47 6.7 N 13 20 7 11 1010.8 1010.8 0.2
29/02:30pm 23.7 20.1 11.7 47 6.8 NNW 22 32 12 17 1010.7 1010.7 0.2
29/02:00pm 23.3 19.1 11.1 46 6.8 NW 24 33 13 18 1010.9 1010.9 0.2
29/01:30pm 22.9 19.1 11.3 48 6.5 NNW 22 41 12 22 1011.0 1011.0 0.0
29/01:00pm 21.6 18.1 13.3 59 4.8 N 24 33 13 18 1011.1 1011.1 0.0
29/12:30pm 20.9 16.6 13.2 61 4.4 N 28 33 15 18 1011.6 1011.5 0.0
29/12:00pm 20.0 15.3 13.2 65 3.9 NNE 30 39 16 21 1011.9 1011.8 0.0
29/11:30am 20.7 16.1 13.4 63 4.2 N 30 39 16 21 1012.3 1012.2 0.0
29/11:00am 20.2 15.6 13.6 66 3.8 NNE 30 39 16 21 1012.6 1012.5 0.0
29/10:30am 18.5 14.4 13.8 74 2.7 NNE 28 35 15 19 1013.1 1013.0 0.0
29/10:00am 19.0 16.4 13.8 72 3.0 NNE 20 26 11 14 1013.2 1013.1 0.0
29/09:30am 19.2 16.5 13.4 69 3.3 NNE 20 26 11 14 1013.0 1012.9 0.0
29/09:00am 18.8 17.3 13.1 69 3.2 N 13 19 7 10 1013.3 1013.2 0.0
29/08:30am 18.6 17.7 12.7 68 3.3 N 9 15 5 8 1013.2 1013.1 0.0
29/08:00am 18.5 15.1 12.6 68 3.3 N 22 32 12 17 1012.8 1012.7 0.0
29/07:30am 19.0 14.0 12.2 64 3.8 NNW 30 44 16 24 1012.7 1012.6 0.0
29/07:00am 18.5 15.5 12.6 68 3.3 N 20 28 11 15 1012.5 1012.4 0.0
29/06:30am 17.9 16.2 12.5 70 3.0 N 13 15 7 8 1012.5 1012.4 0.0
29/06:00am 18.6 16.5 12.5 67 3.4 NNW 15 22 8 12 1012.6 1012.5 0.0
29/05:30am 19.1 16.1 12.1 64 3.9 NW 19 28 10 15 1012.9 1012.8 0.0
29/05:00am 19.3 16.3 12.1 63 4.0 NNW 19 30 10 16 1013.0 1012.9 0.0
29/04:30am 19.2 16.6 12.0 63 4.0 NNW 17 24 9 13 1013.0 1012.9 0.0
29/04:00am 19.7 16.1 12.0 61 4.3 NW 22 35 12 19 1013.2 1013.1 0.0
29/03:30am 22.1 16.1 8.7 42 7.1 NW 30 54 16 29 1013.2 1013.1 0.0
29/03:29am 22.2 16.1 8.4 41 7.3 NNW 30 54 16 29 1013.2 1013.1 0.0
29/03:00am 21.3 14.9 8.6 44 6.7 N 32 41 17 22 1012.6 1012.5 0.0
29/02:30am 21.3 14.3 8.4 43 6.8 N 35 43 19 23 1012.6 1012.5 0.0
29/02:00am 21.6 15.8 8.0 41 7.1 NNW 28 44 15 24 1012.8 1012.7 0.0
29/01:55am 21.6 15.1 8.0 41 7.1 NNW 32 50 17 27 1012.8 1012.7 0.0
29/01:30am 21.1 15.7 9.5 47 6.2 N 28 35 15 19 1012.6 1012.5 0.0
29/01:00am 22.5 16.1 8.6 41 7.4 NNW 32 41 17 22 1012.9 1012.8 0.0
29/12:51am 21.8 17.6 9.6 45 6.6 NNW 22 37 12 20 1012.8 1012.7 0.0
29/12:30am 16.8 15.1 13.6 81 1.8 NNW 15 19 8 10 1013.0 1012.9 0.0
29/12:00am 15.4 14.1 13.6 89 1.0 N 13 17 7 9 1012.2 1012.1 0.0
 
Date/Time
CST
Temp
°C
App
Temp
°C
Dew
Point
Rel
Hum
%
Delta-T
°C
Wind Press
QNH
hPa
Press
MSL
hPa
Rain
since 9 am
mm
Dir
 
Spd
km/h
Gust
km/h
Spd
kts
Gust
kts
28/11:30pm 15.9 15.9 14.1 89 1.0 NNW 7 9 4 5 1012.1 1012.0 0.0
28/11:00pm 16.2 16.5 14.5 90 1.0 NE 6 7 3 4 1012.6 1012.5 0.0
28/10:30pm 16.5 17.5 14.2 86 1.3 NE 2 7 1 4 1012.9 1012.8 0.0
28/10:00pm 17.5 16.6 14.9 85 1.5 NNE 13 17 7 9 1013.2 1013.1 0.0
28/09:30pm 17.3 17.1 14.7 85 1.5 N 9 13 5 7 1014.1 1014.0 0.0

Other Formats:

Comma delimited format used in spreadsheet applications
http://www.bom.gov.au/fwo/IDS60801/IDS60801.95818.axf

JavaScript Object Notation format (JSON) in row-major order
http://www.bom.gov.au/fwo/IDS60801/IDS60801.95818.json